KISO/ISO METAR and TAF weather

Enter ICAO airport designator
Station Type Date Time Source
KISO METAR 2019/10/23 07:20 UTC NOAA

KISO 230720Z AUTO 28003KT 10SM CLR 17/16 A2994 RMK AO2 T01670160


Station Type Date Time Source
KISO Decoded METAR 2019/10/23 07:20 UTC NOAA

Kinston, Kinston Regional Jetport at Stallings Field, NC, United States (KISO) 35-20N 077-37W
Oct 23, 2019 - 03:20 AM EDT / 2019.10.23 0720 UTC
Wind: from the W (280 degrees) at 3 MPH (3 KT):0
Visibility: 10 mile(s):0
Sky conditions: clear
Temperature: 62.1 F (16.7 C)
Dew Point: 60.8 F (16.0 C)
Relative Humidity: 95%
Pressure (altimeter): 29.94 in. Hg (1013 hPa)
ob: KISO 230720Z AUTO 28003KT 10SM CLR 17/16 A2994 RMK AO2 T01670160
cycle: 7

Station Type Date Time Source
KISO TAF 2019/10/23 06:34 UTC NOAA

TAF KISO 230532Z 2306/2406 34007KT P6SM SCT250
TEMPO 2306/2308 2SM BR
AMD LTD TO CLD VIS AND WIND

Example: see airport list